Time;durP1;ratioP1;P1;durP2;ratioP2;P2;SDS_P1;SDS_P2;PMS_P1;PMS_P2;Temp;Humidity;BMP_temperature;BMP_pressure;BME280_temperature;BME280_humidity;BME280_pressure;Samples;Min_cycle;Max_cycle;Signal;HPM_P1;HPM_P2
2024/03/26 00:01:57;;;;;;;3.85;1.67;;;;;;;;;;5057266;28;20025;-54
2024/03/26 00:04:23;;;;;;;3.90;1.50;;;;;;;;;;5056818;28;20455;-55
2024/03/26 00:06:49;;;;;;;3.55;1.90;;;;;;;;;;5057215;28;20048;-55
2024/03/26 00:09:14;;;;;;;2.55;1.60;;;;;;;;;;5057168;28;20025;-57
2024/03/26 00:11:40;;;;;;;2.95;1.75;;;;;;;;;;5056699;28;20025;-57
2024/03/26 00:14:06;;;;;;;3.42;1.75;;;;;;;;;;5057067;28;20097;-56
2024/03/26 00:16:32;;;;;;;3.60;1.85;;;;;;;;;;5056643;28;20029;-56
2024/03/26 00:18:58;;;;;;;2.67;1.40;;;;;;;;;;5057087;28;20435;-57
2024/03/26 00:21:24;;;;;;;3.60;1.60;;;;;;;;;;5056753;28;20101;-55
2024/03/26 00:23:50;;;;;;;3.05;1.40;;;;;;;;;;5056168;28;20025;-53
2024/03/26 00:26:16;;;;;;;3.03;1.77;;;;;;;;;;5056346;28;20028;-53
2024/03/26 00:28:42;;;;;;;5.07;1.45;;;;;;;;;;5056594;28;20037;-53
2024/03/26 00:31:08;;;;;;;2.75;1.73;;;;;;;;;;5056361;28;20025;-56
2024/03/26 00:33:34;;;;;;;3.88;1.92;;;;;;;;;;5056543;28;20029;-56
2024/03/26 00:36:00;;;;;;;7.22;1.50;;;;;;;;;;5056544;28;20100;-54
2024/03/26 00:38:26;;;;;;;5.30;1.75;;;;;;;;;;5056332;28;20431;-52
2024/03/26 00:40:51;;;;;;;3.63;2.08;;;;;;;;;;5056138;28;20417;-55
2024/03/26 00:43:17;;;;;;;3.40;1.42;;;;;;;;;;5055243;28;20032;-53
2024/03/26 00:45:44;;;;;;;2.70;1.42;;;;;;;;;;5056125;28;20017;-56
2024/03/26 00:48:10;;;;;;;2.97;1.83;;;;;;;;;;5054699;28;20033;-52
2024/03/26 00:50:36;;;;;;;3.50;2.03;;;;;;;;;;5055616;28;20075;-51
2024/03/26 00:53:02;;;;;;;3.30;1.98;;;;;;;;;;5055820;28;20025;-53
2024/03/26 00:55:28;;;;;;;4.00;1.95;;;;;;;;;;5056073;28;20031;-53
2024/03/26 00:57:54;;;;;;;3.85;2.25;;;;;;;;;;5055272;28;20053;-53
2024/03/26 01:00:20;;;;;;;2.85;2.05;;;;;;;;;;5055444;28;20081;-53
2024/03/26 01:02:46;;;;;;;3.00;1.75;;;;;;;;;;5055741;28;20057;-52
2024/03/26 01:05:12;;;;;;;3.45;2.17;;;;;;;;;;5056382;28;20025;-50
2024/03/26 01:07:38;;;;;;;2.70;1.75;;;;;;;;;;5055618;28;20465;-57
2024/03/26 01:10:04;;;;;;;3.05;1.85;;;;;;;;;;5055573;28;20119;-52
2024/03/26 01:12:31;;;;;;;3.63;2.10;;;;;;;;;;5055611;28;20035;-51
2024/03/26 01:14:57;;;;;;;3.58;1.48;;;;;;;;;;5055583;28;20033;-50
2024/03/26 01:17:23;;;;;;;3.22;2.25;;;;;;;;;;5055234;28;20489;-53
2024/03/26 01:19:49;;;;;;;6.15;1.58;;;;;;;;;;5056239;28;20170;-49
2024/03/26 01:22:15;;;;;;;4.32;1.58;;;;;;;;;;5055465;28;20057;-52
2024/03/26 01:24:41;;;;;;;5.28;2.47;;;;;;;;;;5055732;28;20056;-49
2024/03/26 01:27:07;;;;;;;3.03;1.60;;;;;;;;;;5055247;28;20083;-51
2024/03/26 01:29:33;;;;;;;3.35;1.75;;;;;;;;;;5055705;28;20033;-53
2024/03/26 01:31:58;;;;;;;3.40;1.95;;;;;;;;;;5055506;28;20036;-51
2024/03/26 01:34:24;;;;;;;3.47;1.58;;;;;;;;;;5055679;28;20036;-54
2024/03/26 01:36:50;;;;;;;2.33;1.58;;;;;;;;;;5055530;28;20032;-52
2024/03/26 01:39:16;;;;;;;4.82;2.47;;;;;;;;;;5055910;28;20114;-56
2024/03/26 01:41:42;;;;;;;6.07;2.33;;;;;;;;;;5054786;28;20387;-55
2024/03/26 01:44:08;;;;;;;2.38;1.60;;;;;;;;;;5055509;28;20025;-56
2024/03/26 01:46:36;;;;;;;3.08;2.05;;;;;;;;;;5055490;28;20021;-50
2024/03/26 01:49:02;;;;;;;2.85;1.55;;;;;;;;;;5055441;28;20127;-54
2024/03/26 01:51:28;;;;;;;4.30;1.95;;;;;;;;;;5054870;28;20032;-55
2024/03/26 01:53:54;;;;;;;5.63;1.83;;;;;;;;;;5054747;28;20021;-51
2024/03/26 01:56:22;;;;;;;2.22;1.58;;;;;;;;;;5054481;28;20446;-54
2024/03/26 01:58:49;;;;;;;2.65;1.77;;;;;;;;;;5054440;28;20396;-56
2024/03/26 02:01:15;;;;;;;5.35;2.65;;;;;;;;;;5054886;28;20032;-55
2024/03/26 02:03:41;;;;;;;3.17;1.77;;;;;;;;;;5054644;28;20356;-56
2024/03/26 02:06:08;;;;;;;2.28;1.50;;;;;;;;;;5054560;28;20048;-54
2024/03/26 02:08:34;;;;;;;3.20;1.85;;;;;;;;;;5054985;28;20108;-56
2024/03/26 02:11:00;;;;;;;4.20;2.25;;;;;;;;;;5054511;28;20052;-55
2024/03/26 02:13:26;;;;;;;4.72;2.08;;;;;;;;;;5054394;28;20036;-54
2024/03/26 02:15:52;;;;;;;3.97;2.08;;;;;;;;;;5054676;28;20063;-56
2024/03/26 02:18:18;;;;;;;2.55;1.67;;;;;;;;;;5054628;28;20036;-56
2024/03/26 02:20:43;;;;;;;2.92;1.80;;;;;;;;;;5054265;28;20017;-56
2024/03/26 02:23:09;;;;;;;3.08;1.88;;;;;;;;;;5054484;28;20032;-56
2024/03/26 02:25:35;;;;;;;4.78;2.10;;;;;;;;;;5054167;28;20119;-54
2024/03/26 02:28:01;;;;;;;4.82;1.73;;;;;;;;;;5054091;28;20185;-56
2024/03/26 02:30:30;;;;;;;2.53;1.80;;;;;;;;;;5054656;28;20444;-56
2024/03/26 02:32:56;;;;;;;2.65;2.00;;;;;;;;;;5054660;28;20028;-55
2024/03/26 02:35:22;;;;;;;2.85;1.95;;;;;;;;;;5054807;28;20025;-55
2024/03/26 02:37:50;;;;;;;3.20;1.77;;;;;;;;;;5054001;28;20469;-55
2024/03/26 02:40:16;;;;;;;3.28;2.22;;;;;;;;;;5054566;28;20021;-53
2024/03/26 02:42:42;;;;;;;3.92;2.45;;;;;;;;;;5054206;28;20542;-54
2024/03/26 02:45:08;;;;;;;7.25;2.33;;;;;;;;;;5053890;28;20459;-56
2024/03/26 02:47:34;;;;;;;4.93;2.20;;;;;;;;;;5054017;28;20458;-54
2024/03/26 02:50:00;;;;;;;7.93;2.30;;;;;;;;;;5054395;28;20025;-53
2024/03/26 02:52:26;;;;;;;5.13;1.90;;;;;;;;;;5054257;28;20029;-56
2024/03/26 02:54:52;;;;;;;3.53;2.08;;;;;;;;;;5053787;28;20035;-55
2024/03/26 02:57:18;;;;;;;3.97;2.00;;;;;;;;;;5053810;28;20045;-54
2024/03/26 02:59:43;;;;;;;2.78;1.88;;;;;;;;;;5053419;28;20075;-54
2024/03/26 03:02:09;;;;;;;3.47;2.10;;;;;;;;;;5053719;28;20017;-54
2024/03/26 03:04:35;;;;;;;3.05;1.73;;;;;;;;;;5053941;28;20025;-54
2024/03/26 03:07:01;;;;;;;3.08;1.83;;;;;;;;;;5053471;28;20021;-56
2024/03/26 03:09:27;;;;;;;3.28;2.10;;;;;;;;;;5054108;28;20039;-53
2024/03/26 03:11:53;;;;;;;4.72;2.70;;;;;;;;;;5053598;28;20022;-55
2024/03/26 03:14:19;;;;;;;3.30;2.45;;;;;;;;;;5053844;28;20033;-54
2024/03/26 03:16:45;;;;;;;2.63;1.98;;;;;;;;;;5054272;28;20525;-55
2024/03/26 03:19:11;;;;;;;3.88;2.40;;;;;;;;;;5053517;28;20025;-54
2024/03/26 03:21:37;;;;;;;4.35;2.70;;;;;;;;;;5053137;28;20057;-51
2024/03/26 03:24:03;;;;;;;3.45;2.03;;;;;;;;;;5053407;28;20032;-56
2024/03/26 03:26:29;;;;;;;5.35;1.83;;;;;;;;;;5053451;28;20033;-56
2024/03/26 03:28:54;;;;;;;2.88;2.10;;;;;;;;;;5053843;28;20037;-55
2024/03/26 03:31:20;;;;;;;4.75;2.40;;;;;;;;;;5053925;28;20359;-53
2024/03/26 03:33:46;;;;;;;2.85;2.05;;;;;;;;;;5053856;28;20071;-56
2024/03/26 03:36:12;;;;;;;3.50;2.30;;;;;;;;;;5053093;28;20462;-53
2024/03/26 03:38:38;;;;;;;3.70;2.83;;;;;;;;;;5053767;28;20036;-55
2024/03/26 03:41:04;;;;;;;4.53;2.33;;;;;;;;;;5053044;28;20029;-55
2024/03/26 03:43:30;;;;;;;6.45;1.95;;;;;;;;;;5053276;28;20052;-56
2024/03/26 03:45:56;;;;;;;3.60;2.08;;;;;;;;;;5053311;28;20048;-56
2024/03/26 03:48:22;;;;;;;4.10;2.35;;;;;;;;;;5053204;28;20036;-56
2024/03/26 03:50:48;;;;;;;3.13;2.13;;;;;;;;;;5053169;28;20025;-55
2024/03/26 03:53:14;;;;;;;3.10;2.28;;;;;;;;;;5053359;28;20025;-56
2024/03/26 03:55:40;;;;;;;2.92;2.05;;;;;;;;;;5053179;28;20370;-54
2024/03/26 03:58:07;;;;;;;3.33;2.13;;;;;;;;;;5053638;28;20080;-56
2024/03/26 04:00:33;;;;;;;3.45;2.28;;;;;;;;;;5053004;28;20079;-55
2024/03/26 04:02:59;;;;;;;3.47;2.17;;;;;;;;;;5053617;28;20029;-56
2024/03/26 04:05:25;;;;;;;5.18;2.13;;;;;;;;;;5053391;28;20078;-51
2024/03/26 04:07:51;;;;;;;3.00;1.77;;;;;;;;;;5053001;28;20515;-54
2024/03/26 04:10:17;;;;;;;3.08;2.38;;;;;;;;;;5053642;28;20025;-56
2024/03/26 04:12:43;;;;;;;3.00;2.10;;;;;;;;;;5053503;28;20028;-56
2024/03/26 04:15:10;;;;;;;5.00;2.28;;;;;;;;;;5052967;28;20082;-55
2024/03/26 04:17:36;;;;;;;3.80;2.10;;;;;;;;;;5054424;28;20474;-54
2024/03/26 04:20:02;;;;;;;2.92;1.98;;;;;;;;;;5056293;28;20489;-56
2024/03/26 04:22:28;;;;;;;3.90;2.58;;;;;;;;;;5056494;28;20102;-53
2024/03/26 04:24:54;;;;;;;4.03;2.55;;;;;;;;;;5057278;28;20025;-54
2024/03/26 04:27:20;;;;;;;3.13;1.77;;;;;;;;;;5056564;28;20348;-53
2024/03/26 04:29:46;;;;;;;4.25;2.30;;;;;;;;;;5056416;28;20442;-54
2024/03/26 04:32:12;;;;;;;3.55;2.50;;;;;;;;;;5056388;28;20029;-54
2024/03/26 04:34:39;;;;;;;4.60;2.10;;;;;;;;;;5056031;28;20032;-54
2024/03/26 04:37:05;;;;;;;5.05;2.33;;;;;;;;;;5056431;28;20024;-54
2024/03/26 04:39:31;;;;;;;6.35;2.75;;;;;;;;;;5056310;28;20025;-53
2024/03/26 04:41:57;;;;;;;4.28;2.42;;;;;;;;;;5056021;28;20398;-51
2024/03/26 04:44:23;;;;;;;4.18;2.70;;;;;;;;;;5056162;28;20025;-51
2024/03/26 04:46:49;;;;;;;6.45;2.40;;;;;;;;;;5056043;28;20025;-52
2024/03/26 04:49:15;;;;;;;3.50;2.60;;;;;;;;;;5056574;28;20094;-51
2024/03/26 04:51:41;;;;;;;4.55;2.58;;;;;;;;;;5055971;28;20036;-55
2024/03/26 04:54:07;;;;;;;5.60;2.30;;;;;;;;;;5055997;28;20036;-52
2024/03/26 04:56:33;;;;;;;3.47;2.15;;;;;;;;;;5056018;28;20433;-55
2024/03/26 04:58:59;;;;;;;4.05;2.88;;;;;;;;;;5056198;28;20033;-53
2024/03/26 05:01:24;;;;;;;3.28;2.13;;;;;;;;;;5055843;28;20017;-56
2024/03/26 05:03:50;;;;;;;4.38;2.85;;;;;;;;;;5055855;28;20025;-52
2024/03/26 05:06:16;;;;;;;2.92;2.10;;;;;;;;;;5056365;28;20061;-56
2024/03/26 05:08:42;;;;;;;4.80;2.40;;;;;;;;;;5055968;28;20064;-54
2024/03/26 05:11:08;;;;;;;4.95;2.10;;;;;;;;;;5055467;28;20368;-56
2024/03/26 05:13:34;;;;;;;3.70;2.38;;;;;;;;;;5055881;28;20455;-55
2024/03/26 05:16:00;;;;;;;3.88;2.83;;;;;;;;;;5055687;28;20032;-53
2024/03/26 05:18:26;;;;;;;4.63;1.83;;;;;;;;;;5056408;28;20036;-54
2024/03/26 05:20:52;;;;;;;5.72;2.85;;;;;;;;;;5055521;28;20108;-54
2024/03/26 05:23:19;;;;;;;4.35;2.80;;;;;;;;;;5055168;28;20032;-55
2024/03/26 05:25:45;;;;;;;3.95;2.20;;;;;;;;;;5055463;28;20032;-55
2024/03/26 05:28:11;;;;;;;5.45;2.83;;;;;;;;;;5055590;28;20120;-55
2024/03/26 05:30:38;;;;;;;3.70;2.90;;;;;;;;;;5055597;28;20075;-54
2024/03/26 05:33:04;;;;;;;5.97;2.70;;;;;;;;;;5055325;28;20021;-56
2024/03/26 05:35:30;;;;;;;5.22;2.42;;;;;;;;;;5056055;28;20440;-55
2024/03/26 05:37:58;;;;;;;4.10;2.88;;;;;;;;;;5054858;28;20186;-55
2024/03/26 05:40:24;;;;;;;5.28;3.17;;;;;;;;;;5055637;28;20029;-53
2024/03/26 05:42:50;;;;;;;5.55;3.17;;;;;;;;;;5055099;28;20033;-55
2024/03/26 05:45:16;;;;;;;3.20;2.42;;;;;;;;;;5055545;28;20481;-52
2024/03/26 05:47:42;;;;;;;5.22;3.78;;;;;;;;;;5054535;28;20112;-56
2024/03/26 05:50:08;;;;;;;8.85;3.42;;;;;;;;;;5055011;28;20116;-54
2024/03/26 05:52:34;;;;;;;3.85;2.72;;;;;;;;;;5055454;28;20489;-51
2024/03/26 05:55:00;;;;;;;3.80;2.67;;;;;;;;;;5055258;28;20029;-54
2024/03/26 05:57:26;;;;;;;3.35;2.50;;;;;;;;;;5054978;28;20502;-52
2024/03/26 05:59:52;;;;;;;6.78;2.67;;;;;;;;;;5054557;28;20033;-55
2024/03/26 06:02:18;;;;;;;3.85;2.65;;;;;;;;;;5054722;28;20025;-53
2024/03/26 06:04:45;;;;;;;7.00;3.13;;;;;;;;;;5054572;28;20051;-56
2024/03/26 06:07:11;;;;;;;5.47;3.15;;;;;;;;;;5055471;28;20033;-57
2024/03/26 06:09:37;;;;;;;3.65;2.63;;;;;;;;;;5055094;28;20379;-55
2024/03/26 06:12:03;;;;;;;5.38;2.30;;;;;;;;;;5054578;28;20087;-55
2024/03/26 06:14:29;;;;;;;8.75;2.22;;;;;;;;;;5054871;28;20036;-55
2024/03/26 06:16:55;;;;;;;3.80;2.03;;;;;;;;;;5054465;28;20021;-54
2024/03/26 06:19:21;;;;;;;3.65;2.08;;;;;;;;;;5054268;28;20036;-56
2024/03/26 06:21:47;;;;;;;2.85;2.20;;;;;;;;;;5054688;28;20021;-56
2024/03/26 06:24:13;;;;;;;3.78;2.58;;;;;;;;;;5054949;28;20048;-55
2024/03/26 06:26:39;;;;;;;4.55;2.72;;;;;;;;;;5054586;28;20025;-57
2024/03/26 06:29:05;;;;;;;6.57;2.38;;;;;;;;;;5054432;28;20059;-56
2024/03/26 06:31:30;;;;;;;3.72;2.28;;;;;;;;;;5054774;28;20344;-56
2024/03/26 06:33:56;;;;;;;6.10;2.25;;;;;;;;;;5054243;28;20035;-57
2024/03/26 06:36:22;;;;;;;3.53;2.63;;;;;;;;;;5053775;28;20021;-54
2024/03/26 06:38:48;;;;;;;3.88;2.72;;;;;;;;;;5054568;28;20123;-57
2024/03/26 06:41:14;;;;;;;3.08;2.13;;;;;;;;;;5053599;28;20466;-57
2024/03/26 06:43:40;;;;;;;6.55;3.22;;;;;;;;;;5054419;28;20029;-57
2024/03/26 06:46:06;;;;;;;4.40;2.75;;;;;;;;;;5054293;28;20158;-56
2024/03/26 06:48:32;;;;;;;6.25;2.90;;;;;;;;;;5053886;28;20078;-57
2024/03/26 06:50:58;;;;;;;3.88;2.40;;;;;;;;;;5053893;28;20017;-56
2024/03/26 06:53:24;;;;;;;4.95;3.10;;;;;;;;;;5053845;28;20051;-57
2024/03/26 06:55:50;;;;;;;3.33;2.80;;;;;;;;;;5053737;28;20379;-57
2024/03/26 06:58:15;;;;;;;5.85;3.28;;;;;;;;;;5054808;28;20085;-57
2024/03/26 07:00:42;;;;;;;5.30;2.85;;;;;;;;;;5053860;28;20045;-57
2024/03/26 07:03:08;;;;;;;6.07;3.22;;;;;;;;;;5054262;28;20104;-57
2024/03/26 07:05:34;;;;;;;4.47;3.35;;;;;;;;;;5053678;28;20025;-57
2024/03/26 07:08:00;;;;;;;4.57;3.17;;;;;;;;;;5053654;28;20040;-56
2024/03/26 07:10:26;;;;;;;3.80;3.15;;;;;;;;;;5054136;28;20477;-56
2024/03/26 07:12:52;;;;;;;7.97;3.67;;;;;;;;;;5053238;28;20040;-58
2024/03/26 07:15:18;;;;;;;6.07;3.30;;;;;;;;;;5054034;28;20024;-58
2024/03/26 07:17:44;;;;;;;5.75;2.90;;;;;;;;;;5053729;28;20029;-57
2024/03/26 07:20:11;;;;;;;3.50;2.45;;;;;;;;;;5053465;28;20178;-55
2024/03/26 07:22:37;;;;;;;4.30;2.88;;;;;;;;;;5053762;28;20021;-58
2024/03/26 07:25:03;;;;;;;6.63;2.83;;;;;;;;;;5053521;28;20181;-54
2024/03/26 07:27:29;;;;;;;3.90;2.83;;;;;;;;;;5054100;28;20048;-56
2024/03/26 07:29:55;;;;;;;6.68;3.28;;;;;;;;;;5053593;28;20451;-56
2024/03/26 07:32:22;;;;;;;5.30;3.13;;;;;;;;;;5053460;28;20033;-54
2024/03/26 07:34:48;;;;;;;5.00;2.88;;;;;;;;;;5053445;28;20521;-54
2024/03/26 07:37:13;;;;;;;3.72;2.85;;;;;;;;;;5053016;28;20025;-58
2024/03/26 07:39:39;;;;;;;4.47;2.88;;;;;;;;;;5053690;28;20025;-58
2024/03/26 07:42:06;;;;;;;3.50;2.45;;;;;;;;;;5053626;28;20033;-58
2024/03/26 07:44:32;;;;;;;5.05;2.42;;;;;;;;;;5053499;28;20037;-57
2024/03/26 07:46:58;;;;;;;5.70;3.80;;;;;;;;;;5053572;28;20083;-58
2024/03/26 07:49:24;;;;;;;5.38;3.60;;;;;;;;;;5053317;28;20430;-57
2024/03/26 07:51:51;;;;;;;4.13;3.15;;;;;;;;;;5055671;28;20083;-60
2024/03/26 07:54:20;;;;;;;3.20;2.85;;;;;;;;;;5057330;28;20025;-57
2024/03/26 07:56:46;;;;;;;4.57;3.47;;;;;;;;;;5056735;28;20087;-55
2024/03/26 07:59:12;;;;;;;4.68;3.10;;;;;;;;;;5056948;28;20062;-57
2024/03/26 08:01:38;;;;;;;3.50;2.53;;;;;;;;;;5057434;28;20033;-56
2024/03/26 08:04:05;;;;;;;5.38;2.75;;;;;;;;;;5056947;28;20047;-57
2024/03/26 08:06:32;;;;;;;4.78;2.72;;;;;;;;;;5057565;28;20036;-57
2024/03/26 08:08:58;;;;;;;4.65;2.75;;;;;;;;;;5057616;28;20057;-56
2024/03/26 08:11:24;;;;;;;4.00;2.90;;;;;;;;;;5057151;28;20419;-57
2024/03/26 08:13:50;;;;;;;4.88;2.92;;;;;;;;;;5056419;28;20154;-56
2024/03/26 08:16:15;;;;;;;4.43;2.58;;;;;;;;;;5056319;28;20021;-59
2024/03/26 08:18:41;;;;;;;4.05;2.90;;;;;;;;;;5056812;28;20033;-56
2024/03/26 08:21:07;;;;;;;5.43;3.60;;;;;;;;;;5056459;28;20021;-57
2024/03/26 08:23:33;;;;;;;5.68;3.08;;;;;;;;;;5056373;28;20024;-57
2024/03/26 08:26:00;;;;;;;3.63;2.67;;;;;;;;;;5056481;28;20036;-52
2024/03/26 08:28:26;;;;;;;4.90;3.08;;;;;;;;;;5057162;28;20036;-58
2024/03/26 08:30:52;;;;;;;3.45;2.28;;;;;;;;;;5056057;28;20044;-56
2024/03/26 08:33:21;;;;;;;5.40;3.40;;;;;;;;;;5056325;28;20021;-56
2024/03/26 08:35:47;;;;;;;5.07;2.67;;;;;;;;;;5056248;28;20085;-57
2024/03/26 08:38:13;;;;;;;5.97;3.05;;;;;;;;;;5056361;28;20060;-57
2024/03/26 08:40:40;;;;;;;4.07;2.50;;;;;;;;;;5056675;28;20455;-56
2024/03/26 08:43:06;;;;;;;4.45;2.63;;;;;;;;;;5056632;28;20029;-56
2024/03/26 08:45:32;;;;;;;3.92;2.88;;;;;;;;;;5056544;28;20035;-57
2024/03/26 08:47:59;;;;;;;4.20;2.92;;;;;;;;;;5056008;28;20078;-53
2024/03/26 08:50:25;;;;;;;5.55;2.67;;;;;;;;;;5056084;28;20166;-57
2024/03/26 08:52:50;;;;;;;4.30;2.63;;;;;;;;;;5056430;28;20029;-57
2024/03/26 08:55:16;;;;;;;3.42;2.25;;;;;;;;;;5056280;28;20032;-56
2024/03/26 08:57:42;;;;;;;4.43;2.63;;;;;;;;;;5055766;28;20052;-57
2024/03/26 09:00:10;;;;;;;3.70;2.17;;;;;;;;;;5056317;28;20436;-57
2024/03/26 09:02:36;;;;;;;7.60;2.80;;;;;;;;;;5055873;28;20398;-57
2024/03/26 09:05:03;;;;;;;3.10;2.25;;;;;;;;;;5055321;28;20071;-55
2024/03/26 09:07:29;;;;;;;3.83;2.25;;;;;;;;;;5056253;28;20037;-56
2024/03/26 09:09:55;;;;;;;3.67;2.30;;;;;;;;;;5056163;28;20340;-56
2024/03/26 09:12:21;;;;;;;2.50;1.63;;;;;;;;;;5055404;28;20036;-58
2024/03/26 09:14:47;;;;;;;2.75;1.85;;;;;;;;;;5055842;28;20039;-58
2024/03/26 09:17:13;;;;;;;5.65;2.33;;;;;;;;;;5055251;28;20024;-57
2024/03/26 09:19:39;;;;;;;4.00;2.13;;;;;;;;;;5055801;28;20462;-57
2024/03/26 09:22:05;;;;;;;3.05;1.90;;;;;;;;;;5055988;28;20036;-57
2024/03/26 09:24:40;;;;;;;4.30;2.28;;;;;;;;;;5055339;28;20024;-57
2024/03/26 09:27:06;;;;;;;3.35;2.45;;;;;;;;;;5055283;28;20036;-58
2024/03/26 09:29:32;;;;;;;3.92;1.98;;;;;;;;;;5055315;28;20033;-58
2024/03/26 09:31:58;;;;;;;2.75;1.55;;;;;;;;;;5055548;28;20127;-58
2024/03/26 09:34:24;;;;;;;4.72;2.05;;;;;;;;;;5055231;28;20029;-56
2024/03/26 09:36:50;;;;;;;3.03;2.17;;;;;;;;;;5055082;28;20104;-57
2024/03/26 09:39:16;;;;;;;3.45;1.88;;;;;;;;;;5055406;28;20068;-56
2024/03/26 09:41:42;;;;;;;4.15;1.95;;;;;;;;;;5055287;28;20099;-56
2024/03/26 09:44:09;;;;;;;4.28;2.20;;;;;;;;;;5054699;28;20029;-58
2024/03/26 09:46:36;;;;;;;2.97;1.80;;;;;;;;;;5054896;28;20029;-58
2024/03/26 09:49:03;;;;;;;2.40;1.65;;;;;;;;;;5055090;28;20056;-58
2024/03/26 09:51:33;;;;;;;2.30;1.65;;;;;;;;;;5054857;28;20032;-57
2024/03/26 09:54:00;;;;;;;2.85;2.05;;;;;;;;;;5054822;28;20025;-57
2024/03/26 09:56:26;;;;;;;2.97;1.98;;;;;;;;;;5055416;28;20045;-57
2024/03/26 09:58:52;;;;;;;7.65;1.92;;;;;;;;;;5055206;28;20356;-55
2024/03/26 10:01:20;;;;;;;3.83;2.42;;;;;;;;;;5054377;28;20033;-57
2024/03/26 10:03:48;;;;;;;3.42;1.60;;;;;;;;;;5055448;28;20044;-57
2024/03/26 10:06:14;;;;;;;3.10;2.05;;;;;;;;;;5054622;28;20438;-58
2024/03/26 10:08:40;;;;;;;2.67;1.77;;;;;;;;;;5054895;28;20033;-58
2024/03/26 10:11:07;;;;;;;3.67;1.88;;;;;;;;;;5055297;28;20127;-58
2024/03/26 10:13:33;;;;;;;3.08;1.70;;;;;;;;;;5054370;28;20025;-56
2024/03/26 10:15:59;;;;;;;2.70;1.73;;;;;;;;;;5053842;28;20033;-57
2024/03/26 10:18:27;;;;;;;3.55;2.10;;;;;;;;;;5054717;28;20421;-57
2024/03/26 10:20:53;;;;;;;3.83;2.45;;;;;;;;;;5054280;28;20091;-56
2024/03/26 10:23:19;;;;;;;3.33;1.88;;;;;;;;;;5054257;28;20029;-57
2024/03/26 10:25:45;;;;;;;2.78;1.58;;;;;;;;;;5054602;28;20473;-57
2024/03/26 10:28:12;;;;;;;3.33;1.85;;;;;;;;;;5054820;28;20033;-57
2024/03/26 10:30:38;;;;;;;5.15;2.03;;;;;;;;;;5054218;28;20425;-58
2024/03/26 10:33:04;;;;;;;4.82;2.03;;;;;;;;;;5054105;28;20116;-57
2024/03/26 10:35:31;;;;;;;5.03;1.95;;;;;;;;;;5054072;28;20056;-57
2024/03/26 10:37:57;;;;;;;3.05;1.65;;;;;;;;;;5053897;28;20112;-56
2024/03/26 10:40:23;;;;;;;5.00;1.85;;;;;;;;;;5054274;28;20024;-57
2024/03/26 10:42:52;;;;;;;3.78;1.98;;;;;;;;;;5053495;28;20183;-57
2024/03/26 10:45:18;;;;;;;3.08;1.80;;;;;;;;;;5053885;28;20460;-57
2024/03/26 10:47:45;;;;;;;4.10;1.90;;;;;;;;;;5053823;28;20037;-57
2024/03/26 10:53:29;;;;;;;2.92;1.65;;;;;;;;;;5040464;28;20039;-57
2024/03/26 10:55:56;;;;;;;2.33;1.70;;;;;;;;;;5053893;28;20024;-57
2024/03/26 10:58:22;;;;;;;2.22;1.30;;;;;;;;;;5054199;28;20056;-57
2024/03/26 11:00:48;;;;;;;2.97;1.40;;;;;;;;;;5053754;28;20036;-55
2024/03/26 11:03:15;;;;;;;3.17;1.73;;;;;;;;;;5053705;28;20025;-57
2024/03/26 11:05:41;;;;;;;2.70;1.20;;;;;;;;;;5053694;28;20025;-57
2024/03/26 11:08:19;;;;;;;3.20;1.88;;;;;;;;;;5053332;28;20049;-57
2024/03/26 11:11:18;;;;;;;1.80;0.95;;;;;;;;;;5054111;28;20029;-58
2024/03/26 11:13:44;;;;;;;1.77;0.77;;;;;;;;;;5053111;28;20041;-57
2024/03/26 11:16:30;;;;;;;3.72;1.83;;;;;;;;;;5054107;28;20025;-58
2024/03/26 11:18:56;;;;;;;4.57;1.48;;;;;;;;;;5053775;28;20033;-58
2024/03/26 11:21:22;;;;;;;2.70;1.15;;;;;;;;;;5053574;28;20079;-57
2024/03/26 11:23:48;;;;;;;5.97;1.75;;;;;;;;;;5053771;28;20025;-58
2024/03/26 11:26:26;;;;;;;4.07;1.90;;;;;;;;;;5054677;28;20339;-57
2024/03/26 11:28:52;;;;;;;2.72;0.98;;;;;;;;;;5057887;28;20029;-58
2024/03/26 11:31:20;;;;;;;2.63;1.40;;;;;;;;;;5057605;28;20086;-57
2024/03/26 11:33:53;;;;;;;3.85;1.25;;;;;;;;;;5057569;28;20495;-57
2024/03/26 11:36:20;;;;;;;2.70;1.55;;;;;;;;;;5057575;28;20024;-57
2024/03/26 11:38:47;;;;;;;2.75;1.23;;;;;;;;;;5057989;28;20085;-57
2024/03/26 11:41:13;;;;;;;2.10;1.45;;;;;;;;;;5057450;28;20029;-58
2024/03/26 11:43:40;;;;;;;3.20;1.60;;;;;;;;;;5057371;28;20021;-58
2024/03/26 11:46:07;;;;;;;2.78;1.58;;;;;;;;;;5058174;28;20021;-57
2024/03/26 11:48:34;;;;;;;2.72;1.30;;;;;;;;;;5057311;28;20036;-57
2024/03/26 11:51:00;;;;;;;2.63;1.08;;;;;;;;;;5057166;28;20021;-58
2024/03/26 11:53:26;;;;;;;2.35;1.08;;;;;;;;;;5057229;28;20025;-57
2024/03/26 11:55:52;;;;;;;2.55;1.20;;;;;;;;;;5057132;28;20021;-57
2024/03/26 11:58:18;;;;;;;4.03;0.80;;;;;;;;;;5058069;28;20057;-58
2024/03/26 12:00:49;;;;;;;2.42;1.00;;;;;;;;;;5057098;28;20111;-58
2024/03/26 12:03:15;;;;;;;;;;;;;;;;;;5057819;28;20028;-58
2024/03/26 12:05:41;;;;;;;2.72;0.95;;;;;;;;;;5057029;28;19911;-57
2024/03/26 12:08:07;;;;;;;3.03;1.02;;;;;;;;;;5057714;28;20100;-57
2024/03/26 12:10:33;;;;;;;2.80;1.40;;;;;;;;;;5057101;28;20033;-58
2024/03/26 12:12:59;;;;;;;2.83;1.48;;;;;;;;;;5057139;28;20066;-56
2024/03/26 12:15:25;;;;;;;3.33;1.48;;;;;;;;;;5056555;28;20040;-57
2024/03/26 12:17:52;;;;;;;2.67;1.55;;;;;;;;;;5056784;28;20029;-57
2024/03/26 12:20:18;;;;;;;3.22;1.50;;;;;;;;;;5056846;28;20021;-58
2024/03/26 12:22:44;;;;;;;2.22;1.45;;;;;;;;;;5057206;28;20025;-58
2024/03/26 12:25:10;;;;;;;2.17;1.38;;;;;;;;;;5057100;28;20340;-57
2024/03/26 12:27:41;;;;;;;2.00;1.23;;;;;;;;;;5056388;28;20053;-58
2024/03/26 12:30:07;;;;;;;;;;;;;;;;;;5057603;28;20025;-57
2024/03/26 12:32:33;;;;;;;2.38;1.00;;;;;;;;;;5057073;28;19915;-57
2024/03/26 12:34:59;;;;;;;2.95;1.52;;;;;;;;;;5056496;28;20017;-55
2024/03/26 12:37:25;;;;;;;2.92;1.77;;;;;;;;;;5056003;28;20024;-57
2024/03/26 12:39:51;;;;;;;2.45;1.40;;;;;;;;;;5056543;28;20040;-57
2024/03/26 12:42:17;;;;;;;3.53;1.77;;;;;;;;;;5056588;28;20096;-57
2024/03/26 12:44:43;;;;;;;4.78;1.40;;;;;;;;;;5056273;28;20444;-58
2024/03/26 12:47:09;;;;;;;3.65;1.77;;;;;;;;;;5056081;28;20021;-58
2024/03/26 12:49:35;;;;;;;3.10;1.40;;;;;;;;;;5056844;28;20033;-57
2024/03/26 12:52:02;;;;;;;2.30;1.42;;;;;;;;;;5055788;28;20565;-58
2024/03/26 12:54:27;;;;;;;2.42;1.55;;;;;;;;;;5056617;28;20024;-59
2024/03/26 12:56:53;;;;;;;3.50;1.30;;;;;;;;;;5056133;28;20494;-58
2024/03/26 12:59:19;;;;;;;2.17;1.05;;;;;;;;;;5056055;28;20100;-59
2024/03/26 13:01:45;;;;;;;3.65;1.10;;;;;;;;;;5055772;28;20048;-59
2024/03/26 13:04:13;;;;;;;1.63;0.90;;;;;;;;;;5055515;28;20055;-59
2024/03/26 13:06:39;;;;;;;1.50;0.80;;;;;;;;;;5056619;28;20026;-58
2024/03/26 13:09:05;;;;;;;3.53;1.33;;;;;;;;;;5056850;28;20025;-58
2024/03/26 13:11:31;;;;;;;1.60;0.80;;;;;;;;;;5055666;28;20040;-57
2024/03/26 13:13:57;;;;;;;2.03;1.10;;;;;;;;;;5056464;28;20025;-58
2024/03/26 13:16:23;;;;;;;1.60;0.90;;;;;;;;;;5055652;28;20378;-61
2024/03/26 13:18:49;;;;;;;1.63;0.90;;;;;;;;;;5055868;28;20598;-58
2024/03/26 13:21:28;;;;;;;2.25;0.88;;;;;;;;;;5055426;28;20055;-58
2024/03/26 13:23:53;;;;;;;1.77;0.98;;;;;;;;;;5055344;28;20028;-58
2024/03/26 13:26:19;;;;;;;1.50;0.70;;;;;;;;;;5055917;28;20021;-59
2024/03/26 13:28:45;;;;;;;2.05;0.93;;;;;;;;;;5055476;28;20029;-59
2024/03/26 13:31:11;;;;;;;2.30;1.25;;;;;;;;;;5055326;28;20029;-59
2024/03/26 13:33:37;;;;;;;1.55;0.85;;;;;;;;;;5055954;28;20469;-58
2024/03/26 13:36:04;;;;;;;1.52;0.80;;;;;;;;;;5055235;28;20391;-58
2024/03/26 13:38:30;;;;;;;2.17;0.82;;;;;;;;;;5055893;28;20119;-58
2024/03/26 13:40:56;;;;;;;1.70;0.85;;;;;;;;;;5055175;28;20052;-56
2024/03/26 13:46:17;;;;;;;1.67;0.73;;;;;;;;;;5055728;28;20035;-58
2024/03/26 13:48:43;;;;;;;1.77;0.60;;;;;;;;;;5054863;28;20104;-59
2024/03/26 13:51:09;;;;;;;1.73;0.73;;;;;;;;;;5055253;28;20415;-59
2024/03/26 13:53:36;;;;;;;6.93;1.00;;;;;;;;;;5054611;28;20048;-59
2024/03/26 13:56:02;;;;;;;2.67;1.05;;;;;;;;;;5054852;28;20087;-59
2024/03/26 13:58:27;;;;;;;1.40;0.70;;;;;;;;;;5055080;28;20028;-59
2024/03/26 14:00:53;;;;;;;2.45;0.90;;;;;;;;;;5054784;28;20066;-60
2024/03/26 14:03:21;;;;;;;1.92;0.95;;;;;;;;;;5055050;28;20025;-60
2024/03/26 14:05:47;;;;;;;1.25;0.70;;;;;;;;;;5055281;28;20367;-60
2024/03/26 14:08:13;;;;;;;1.73;0.80;;;;;;;;;;5055079;28;20029;-59
2024/03/26 14:10:39;;;;;;;2.85;1.05;;;;;;;;;;5054635;28;20356;-59
2024/03/26 14:13:05;;;;;;;1.35;0.70;;;;;;;;;;5054492;28;20025;-59
2024/03/26 14:15:31;;;;;;;1.40;0.70;;;;;;;;;;5054440;28;20021;-60
2024/03/26 14:18:01;;;;;;;4.35;1.15;;;;;;;;;;5054917;28;20027;-58
2024/03/26 14:20:27;;;;;;;1.80;0.70;;;;;;;;;;5054518;28;20032;-58
2024/03/26 14:22:53;;;;;;;2.35;0.82;;;;;;;;;;5054356;28;20025;-58
2024/03/26 14:25:18;;;;;;;1.27;0.68;;;;;;;;;;5054316;28;20029;-58
2024/03/26 14:27:45;;;;;;;1.38;0.73;;;;;;;;;;5054373;28;20025;-58
2024/03/26 14:30:11;;;;;;;0.98;0.40;;;;;;;;;;5054730;28;20025;-58
2024/03/26 14:32:38;;;;;;;3.08;0.77;;;;;;;;;;5053769;28;20375;-58
2024/03/26 14:35:11;;;;;;;1.70;0.60;;;;;;;;;;5054000;28;20021;-58
2024/03/26 14:37:38;;;;;;;1.08;0.38;;;;;;;;;;5054345;28;20032;-60
2024/03/26 14:40:10;;;;;;;1.00;0.40;;;;;;;;;;5054517;28;20021;-59
2024/03/26 14:42:36;;;;;;;1.25;0.60;;;;;;;;;;5054857;28;20183;-59
2024/03/26 14:45:02;;;;;;;1.67;0.60;;;;;;;;;;5054224;28;20465;-59